sensor_id;sensor_type;location;lat;lon;timestamp;P1;durP1;ratioP1;P2;durP2;ratioP2
22425;SDS011;11380;50.822;15.790;2022-08-27T00:04:51;57.17;;;51.77;;
22425;SDS011;11380;50.822;15.790;2022-08-27T00:09:56;57.73;;;51.97;;
22425;SDS011;11380;50.822;15.790;2022-08-27T00:15:03;57.03;;;51.77;;
22425;SDS011;11380;50.822;15.790;2022-08-27T00:20:14;57.83;;;52.47;;
22425;SDS011;11380;50.822;15.790;2022-08-27T00:25:20;56.60;;;51.23;;
22425;SDS011;11380;50.822;15.790;2022-08-27T00:30:27;58.40;;;52.80;;
22425;SDS011;11380;50.822;15.790;2022-08-27T00:35:33;59.05;;;53.55;;
22425;SDS011;11380;50.822;15.790;2022-08-27T00:40:39;58.08;;;52.62;;
22425;SDS011;11380;50.822;15.790;2022-08-27T00:45:46;56.93;;;51.73;;
22425;SDS011;11380;50.822;15.790;2022-08-27T00:50:52;57.43;;;52.13;;
22425;SDS011;11380;50.822;15.790;2022-08-27T00:56:04;57.10;;;51.90;;
22425;SDS011;11380;50.822;15.790;2022-08-27T01:01:13;57.03;;;51.67;;
22425;SDS011;11380;50.822;15.790;2022-08-27T01:06:19;57.67;;;52.17;;
22425;SDS011;11380;50.822;15.790;2022-08-27T01:11:26;57.58;;;52.17;;
22425;SDS011;11380;50.822;15.790;2022-08-27T01:27:08;56.80;;;51.40;;
22425;SDS011;11380;50.822;15.790;2022-08-27T01:32:26;57.63;;;51.97;;
22425;SDS011;11380;50.822;15.790;2022-08-27T01:37:33;57.87;;;52.27;;
22425;SDS011;11380;50.822;15.790;2022-08-27T01:48:02;57.97;;;52.37;;
22425;SDS011;11380;50.822;15.790;2022-08-27T01:53:11;57.50;;;51.80;;
22425;SDS011;11380;50.822;15.790;2022-08-27T01:58:21;56.43;;;51.20;;
22425;SDS011;11380;50.822;15.790;2022-08-27T02:03:28;56.83;;;51.45;;
22425;SDS011;11380;50.822;15.790;2022-08-27T02:08:34;56.97;;;51.77;;
22425;SDS011;11380;50.822;15.790;2022-08-27T02:18:44;58.15;;;52.33;;
22425;SDS011;11380;50.822;15.790;2022-08-27T02:23:53;57.53;;;51.90;;
22425;SDS011;11380;50.822;15.790;2022-08-27T02:28:59;56.48;;;51.37;;
22425;SDS011;11380;50.822;15.790;2022-08-27T02:39:09;57.40;;;52.03;;
22425;SDS011;11380;50.822;15.790;2022-08-27T02:44:15;56.88;;;51.70;;
22425;SDS011;11380;50.822;15.790;2022-08-27T02:49:21;57.55;;;52.00;;
22425;SDS011;11380;50.822;15.790;2022-08-27T02:54:26;58.53;;;52.87;;
22425;SDS011;11380;50.822;15.790;2022-08-27T02:59:32;56.92;;;51.55;;
22425;SDS011;11380;50.822;15.790;2022-08-27T03:04:38;58.07;;;52.17;;
22425;SDS011;11380;50.822;15.790;2022-08-27T03:09:45;58.07;;;51.83;;
22425;SDS011;11380;50.822;15.790;2022-08-27T03:14:51;57.53;;;51.98;;
22425;SDS011;11380;50.822;15.790;2022-08-27T03:25:02;54.35;;;49.40;;
22425;SDS011;11380;50.822;15.790;2022-08-27T03:30:09;54.55;;;49.30;;
22425;SDS011;11380;50.822;15.790;2022-08-27T03:35:18;54.18;;;49.38;;
22425;SDS011;11380;50.822;15.790;2022-08-27T03:40:24;54.45;;;49.55;;
22425;SDS011;11380;50.822;15.790;2022-08-27T03:45:30;54.03;;;49.13;;
22425;SDS011;11380;50.822;15.790;2022-08-27T03:50:38;54.37;;;49.47;;
22425;SDS011;11380;50.822;15.790;2022-08-27T03:55:45;53.87;;;48.80;;
22425;SDS011;11380;50.822;15.790;2022-08-27T04:00:51;53.60;;;48.90;;
22425;SDS011;11380;50.822;15.790;2022-08-27T04:05:57;53.65;;;48.95;;
22425;SDS011;11380;50.822;15.790;2022-08-27T04:11:04;53.47;;;48.63;;
22425;SDS011;11380;50.822;15.790;2022-08-27T04:16:11;53.90;;;49.07;;
22425;SDS011;11380;50.822;15.790;2022-08-27T04:21:16;53.67;;;48.60;;
22425;SDS011;11380;50.822;15.790;2022-08-27T04:26:21;54.13;;;48.80;;
22425;SDS011;11380;50.822;15.790;2022-08-27T04:31:26;53.67;;;48.80;;
22425;SDS011;11380;50.822;15.790;2022-08-27T04:36:32;53.73;;;48.87;;
22425;SDS011;11380;50.822;15.790;2022-08-27T04:41:37;55.37;;;50.00;;
22425;SDS011;11380;50.822;15.790;2022-08-27T04:46:45;54.30;;;49.20;;
22425;SDS011;11380;50.822;15.790;2022-08-27T04:51:52;54.13;;;49.27;;
22425;SDS011;11380;50.822;15.790;2022-08-27T04:56:59;54.50;;;49.50;;
22425;SDS011;11380;50.822;15.790;2022-08-27T05:02:06;53.97;;;49.17;;
22425;SDS011;11380;50.822;15.790;2022-08-27T05:07:13;54.37;;;49.47;;
22425;SDS011;11380;50.822;15.790;2022-08-27T05:12:19;55.65;;;50.35;;
22425;SDS011;11380;50.822;15.790;2022-08-27T05:17:25;58.70;;;53.20;;
22425;SDS011;11380;50.822;15.790;2022-08-27T05:22:33;57.73;;;52.33;;
22425;SDS011;11380;50.822;15.790;2022-08-27T05:27:39;57.98;;;52.43;;
22425;SDS011;11380;50.822;15.790;2022-08-27T05:32:45;57.70;;;52.40;;
22425;SDS011;11380;50.822;15.790;2022-08-27T05:37:51;56.65;;;51.40;;
22425;SDS011;11380;50.822;15.790;2022-08-27T05:42:58;57.57;;;52.37;;
22425;SDS011;11380;50.822;15.790;2022-08-27T05:48:04;57.57;;;52.17;;
22425;SDS011;11380;50.822;15.790;2022-08-27T05:53:11;57.00;;;51.70;;
22425;SDS011;11380;50.822;15.790;2022-08-27T05:58:16;57.73;;;52.13;;
22425;SDS011;11380;50.822;15.790;2022-08-27T06:03:40;58.57;;;53.07;;
22425;SDS011;11380;50.822;15.790;2022-08-27T06:08:49;57.40;;;51.90;;
22425;SDS011;11380;50.822;15.790;2022-08-27T06:13:57;57.20;;;51.37;;
22425;SDS011;11380;50.822;15.790;2022-08-27T06:19:02;57.03;;;51.77;;
22425;SDS011;11380;50.822;15.790;2022-08-27T06:24:09;56.90;;;51.53;;
22425;SDS011;11380;50.822;15.790;2022-08-27T06:29:16;56.40;;;51.20;;
22425;SDS011;11380;50.822;15.790;2022-08-27T06:34:21;55.47;;;50.37;;
22425;SDS011;11380;50.822;15.790;2022-08-27T06:39:27;54.93;;;49.77;;
22425;SDS011;11380;50.822;15.790;2022-08-27T06:44:33;55.03;;;50.03;;
22425;SDS011;11380;50.822;15.790;2022-08-27T06:49:40;55.10;;;50.10;;
22425;SDS011;11380;50.822;15.790;2022-08-27T06:54:47;55.92;;;50.90;;
22425;SDS011;11380;50.822;15.790;2022-08-27T06:59:52;55.23;;;50.27;;
22425;SDS011;11380;50.822;15.790;2022-08-27T07:04:58;56.23;;;51.02;;
22425;SDS011;11380;50.822;15.790;2022-08-27T07:10:04;56.13;;;50.97;;
22425;SDS011;11380;50.822;15.790;2022-08-27T07:15:10;57.40;;;51.88;;
22425;SDS011;11380;50.822;15.790;2022-08-27T07:20:16;59.17;;;53.67;;
22425;SDS011;11380;50.822;15.790;2022-08-27T07:25:23;57.87;;;52.47;;
22425;SDS011;11380;50.822;15.790;2022-08-27T07:30:30;56.77;;;51.50;;
22425;SDS011;11380;50.822;15.790;2022-08-27T07:35:36;56.70;;;51.48;;
22425;SDS011;11380;50.822;15.790;2022-08-27T07:40:41;57.03;;;51.83;;
22425;SDS011;11380;50.822;15.790;2022-08-27T07:45:48;57.67;;;52.20;;
22425;SDS011;11380;50.822;15.790;2022-08-27T07:50:56;56.20;;;51.03;;
22425;SDS011;11380;50.822;15.790;2022-08-27T07:56:03;58.03;;;52.17;;
22425;SDS011;11380;50.822;15.790;2022-08-27T08:01:10;56.53;;;51.40;;
22425;SDS011;11380;50.822;15.790;2022-08-27T08:06:17;56.73;;;51.47;;
22425;SDS011;11380;50.822;15.790;2022-08-27T08:11:23;57.13;;;51.70;;
22425;SDS011;11380;50.822;15.790;2022-08-27T08:16:29;57.17;;;51.87;;
22425;SDS011;11380;50.822;15.790;2022-08-27T08:21:35;58.23;;;52.53;;
22425;SDS011;11380;50.822;15.790;2022-08-27T08:26:41;57.55;;;52.15;;
22425;SDS011;11380;50.822;15.790;2022-08-27T08:31:47;57.50;;;52.10;;
22425;SDS011;11380;50.822;15.790;2022-08-27T08:36:53;57.80;;;52.37;;
22425;SDS011;11380;50.822;15.790;2022-08-27T08:41:59;57.77;;;52.37;;
22425;SDS011;11380;50.822;15.790;2022-08-27T08:47:07;57.87;;;52.37;;
22425;SDS011;11380;50.822;15.790;2022-08-27T08:57:42;58.17;;;52.67;;
22425;SDS011;11380;50.822;15.790;2022-08-27T09:02:54;58.10;;;52.33;;
22425;SDS011;11380;50.822;15.790;2022-08-27T09:08:06;58.10;;;52.40;;
22425;SDS011;11380;50.822;15.790;2022-08-27T09:13:29;58.70;;;53.00;;
22425;SDS011;11380;50.822;15.790;2022-08-27T09:18:37;58.97;;;53.13;;
22425;SDS011;11380;50.822;15.790;2022-08-27T09:29:18;58.93;;;53.27;;
22425;SDS011;11380;50.822;15.790;2022-08-27T09:34:23;58.37;;;52.80;;
22425;SDS011;11380;50.822;15.790;2022-08-27T09:45:17;59.20;;;53.50;;
22425;SDS011;11380;50.822;15.790;2022-08-27T09:50:34;59.10;;;53.38;;
22425;SDS011;11380;50.822;15.790;2022-08-27T09:55:47;59.53;;;53.83;;
22425;SDS011;11380;50.822;15.790;2022-08-27T10:00:59;59.60;;;53.77;;
22425;SDS011;11380;50.822;15.790;2022-08-27T10:06:08;59.33;;;53.60;;
22425;SDS011;11380;50.822;15.790;2022-08-27T10:11:21;59.63;;;53.97;;
22425;SDS011;11380;50.822;15.790;2022-08-27T10:27:30;58.93;;;53.13;;
22425;SDS011;11380;50.822;15.790;2022-08-27T10:49:12;59.97;;;54.27;;
22425;SDS011;11380;50.822;15.790;2022-08-27T10:54:26;60.23;;;54.23;;
22425;SDS011;11380;50.822;15.790;2022-08-27T10:59:37;59.80;;;53.80;;
22425;SDS011;11380;50.822;15.790;2022-08-27T11:04:56;59.60;;;53.80;;
22425;SDS011;11380;50.822;15.790;2022-08-27T11:10:08;60.13;;;54.27;;
22425;SDS011;11380;50.822;15.790;2022-08-27T11:15:16;60.67;;;54.53;;
22425;SDS011;11380;50.822;15.790;2022-08-27T11:25:56;60.23;;;54.33;;
22425;SDS011;11380;50.822;15.790;2022-08-27T11:47:52;59.87;;;54.10;;
22425;SDS011;11380;50.822;15.790;2022-08-27T11:53:01;60.17;;;54.30;;
22425;SDS011;11380;50.822;15.790;2022-08-27T12:03:29;60.00;;;54.30;;
22425;SDS011;11380;50.822;15.790;2022-08-27T12:08:37;60.57;;;54.53;;
22425;SDS011;11380;50.822;15.790;2022-08-27T12:19:19;60.90;;;54.83;;
22425;SDS011;11380;50.822;15.790;2022-08-27T12:24:49;60.20;;;54.30;;
22425;SDS011;11380;50.822;15.790;2022-08-27T12:35:36;60.92;;;54.93;;
22425;SDS011;11380;50.822;15.790;2022-08-27T12:40:55;61.20;;;55.00;;
22425;SDS011;11380;50.822;15.790;2022-08-27T12:46:05;61.80;;;55.60;;
22425;SDS011;11380;50.822;15.790;2022-08-27T13:07:33;61.07;;;55.07;;
22425;SDS011;11380;50.822;15.790;2022-08-27T13:12:43;60.87;;;54.87;;
22425;SDS011;11380;50.822;15.790;2022-08-27T13:17:51;60.20;;;54.40;;
22425;SDS011;11380;50.822;15.790;2022-08-27T13:22:56;59.70;;;54.00;;
22425;SDS011;11380;50.822;15.790;2022-08-27T13:28:08;60.77;;;54.77;;
22425;SDS011;11380;50.822;15.790;2022-08-27T13:33:25;60.77;;;54.77;;
22425;SDS011;11380;50.822;15.790;2022-08-27T13:38:40;60.57;;;54.67;;
22425;SDS011;11380;50.822;15.790;2022-08-27T13:43:48;61.40;;;55.40;;
22425;SDS011;11380;50.822;15.790;2022-08-27T13:48:56;61.40;;;55.33;;
22425;SDS011;11380;50.822;15.790;2022-08-27T13:54:07;61.30;;;55.30;;
22425;SDS011;11380;50.822;15.790;2022-08-27T14:15:34;61.03;;;55.10;;
22425;SDS011;11380;50.822;15.790;2022-08-27T14:20:43;60.63;;;54.70;;
22425;SDS011;11380;50.822;15.790;2022-08-27T14:25:48;59.75;;;53.98;;
22425;SDS011;11380;50.822;15.790;2022-08-27T14:30:56;60.67;;;54.53;;
22425;SDS011;11380;50.822;15.790;2022-08-27T14:36:03;60.13;;;54.30;;
22425;SDS011;11380;50.822;15.790;2022-08-27T14:41:10;62.13;;;55.90;;
22425;SDS011;11380;50.822;15.790;2022-08-27T14:46:21;60.27;;;54.50;;
22425;SDS011;11380;50.822;15.790;2022-08-27T14:51:30;59.93;;;54.03;;
22425;SDS011;11380;50.822;15.790;2022-08-27T14:56:39;59.20;;;53.48;;
22425;SDS011;11380;50.822;15.790;2022-08-27T15:01:45;59.80;;;54.00;;
22425;SDS011;11380;50.822;15.790;2022-08-27T15:06:51;60.07;;;54.30;;
22425;SDS011;11380;50.822;15.790;2022-08-27T15:11:58;59.27;;;53.60;;
22425;SDS011;11380;50.822;15.790;2022-08-27T15:22:13;60.10;;;54.30;;
22425;SDS011;11380;50.822;15.790;2022-08-27T15:27:24;60.27;;;54.47;;
22425;SDS011;11380;50.822;15.790;2022-08-27T15:32:35;59.70;;;53.80;;
22425;SDS011;11380;50.822;15.790;2022-08-27T15:37:43;59.63;;;53.83;;
22425;SDS011;11380;50.822;15.790;2022-08-27T15:42:52;59.03;;;53.35;;
22425;SDS011;11380;50.822;15.790;2022-08-27T15:48:01;59.45;;;53.48;;
22425;SDS011;11380;50.822;15.790;2022-08-27T15:53:08;61.07;;;54.50;;
22425;SDS011;11380;50.822;15.790;2022-08-27T15:58:14;59.57;;;53.77;;
22425;SDS011;11380;50.822;15.790;2022-08-27T16:03:19;59.70;;;53.83;;
22425;SDS011;11380;50.822;15.790;2022-08-27T16:08:27;59.67;;;53.97;;
22425;SDS011;11380;50.822;15.790;2022-08-27T16:13:34;60.20;;;54.20;;
22425;SDS011;11380;50.822;15.790;2022-08-27T16:18:40;59.85;;;54.05;;
22425;SDS011;11380;50.822;15.790;2022-08-27T16:23:46;59.73;;;53.92;;
22425;SDS011;11380;50.822;15.790;2022-08-27T16:28:52;59.67;;;53.87;;
22425;SDS011;11380;50.822;15.790;2022-08-27T16:33:57;59.95;;;53.92;;
22425;SDS011;11380;50.822;15.790;2022-08-27T16:39:03;59.70;;;53.97;;
22425;SDS011;11380;50.822;15.790;2022-08-27T16:44:09;60.38;;;54.38;;
22425;SDS011;11380;50.822;15.790;2022-08-27T16:49:15;61.30;;;55.27;;
22425;SDS011;11380;50.822;15.790;2022-08-27T16:54:38;61.20;;;55.30;;
22425;SDS011;11380;50.822;15.790;2022-08-27T17:04:48;61.23;;;55.33;;
22425;SDS011;11380;50.822;15.790;2022-08-27T17:09:56;62.20;;;56.03;;
22425;SDS011;11380;50.822;15.790;2022-08-27T17:15:03;61.33;;;55.33;;
22425;SDS011;11380;50.822;15.790;2022-08-27T17:20:10;61.40;;;55.50;;
22425;SDS011;11380;50.822;15.790;2022-08-27T17:25:18;61.05;;;55.12;;
22425;SDS011;11380;50.822;15.790;2022-08-27T17:30:26;61.92;;;55.75;;
22425;SDS011;11380;50.822;15.790;2022-08-27T17:35:32;61.20;;;55.10;;
22425;SDS011;11380;50.822;15.790;2022-08-27T17:40:37;62.43;;;56.15;;
22425;SDS011;11380;50.822;15.790;2022-08-27T17:45:45;61.05;;;55.08;;
22425;SDS011;11380;50.822;15.790;2022-08-27T17:50:52;60.87;;;54.67;;
22425;SDS011;11380;50.822;15.790;2022-08-27T17:55:58;60.28;;;54.25;;
22425;SDS011;11380;50.822;15.790;2022-08-27T18:01:04;60.07;;;54.37;;
22425;SDS011;11380;50.822;15.790;2022-08-27T18:06:13;61.08;;;55.10;;
22425;SDS011;11380;50.822;15.790;2022-08-27T18:16:24;60.70;;;54.67;;
22425;SDS011;11380;50.822;15.790;2022-08-27T18:21:31;60.70;;;54.63;;
22425;SDS011;11380;50.822;15.790;2022-08-27T18:31:41;60.60;;;54.70;;
22425;SDS011;11380;50.822;15.790;2022-08-27T18:36:47;59.98;;;54.30;;
22425;SDS011;11380;50.822;15.790;2022-08-27T18:41:54;61.67;;;55.30;;
22425;SDS011;11380;50.822;15.790;2022-08-27T18:46:59;60.80;;;54.90;;
22425;SDS011;11380;50.822;15.790;2022-08-27T18:52:05;61.73;;;55.73;;
22425;SDS011;11380;50.822;15.790;2022-08-27T18:57:13;60.26;;;54.48;;
22425;SDS011;11380;50.822;15.790;2022-08-27T19:02:19;58.70;;;53.10;;
22425;SDS011;11380;50.822;15.790;2022-08-27T19:07:24;58.20;;;52.83;;
22425;SDS011;11380;50.822;15.790;2022-08-27T19:12:31;59.13;;;53.33;;
22425;SDS011;11380;50.822;15.790;2022-08-27T19:17:40;58.42;;;52.93;;
22425;SDS011;11380;50.822;15.790;2022-08-27T19:22:47;58.13;;;52.63;;
22425;SDS011;11380;50.822;15.790;2022-08-27T19:27:52;57.33;;;52.00;;
22425;SDS011;11380;50.822;15.790;2022-08-27T19:32:58;57.67;;;52.33;;
22425;SDS011;11380;50.822;15.790;2022-08-27T19:38:04;58.37;;;52.87;;
22425;SDS011;11380;50.822;15.790;2022-08-27T19:43:11;58.40;;;52.87;;
22425;SDS011;11380;50.822;15.790;2022-08-27T19:48:16;58.50;;;52.83;;
22425;SDS011;11380;50.822;15.790;2022-08-27T19:53:22;58.52;;;52.93;;
22425;SDS011;11380;50.822;15.790;2022-08-27T19:58:28;57.08;;;51.90;;
22425;SDS011;11380;50.822;15.790;2022-08-27T20:03:34;57.00;;;51.73;;
22425;SDS011;11380;50.822;15.790;2022-08-27T20:08:40;57.27;;;51.93;;
22425;SDS011;11380;50.822;15.790;2022-08-27T20:13:48;57.17;;;51.67;;
22425;SDS011;11380;50.822;15.790;2022-08-27T20:18:54;57.50;;;52.20;;
22425;SDS011;11380;50.822;15.790;2022-08-27T20:24:02;57.40;;;52.00;;
22425;SDS011;11380;50.822;15.790;2022-08-27T20:29:08;57.50;;;52.10;;
22425;SDS011;11380;50.822;15.790;2022-08-27T20:34:16;57.77;;;52.43;;
22425;SDS011;11380;50.822;15.790;2022-08-27T20:39:21;57.13;;;51.73;;
22425;SDS011;11380;50.822;15.790;2022-08-27T20:44:26;57.77;;;52.37;;
22425;SDS011;11380;50.822;15.790;2022-08-27T20:49:34;57.33;;;51.92;;
22425;SDS011;11380;50.822;15.790;2022-08-27T20:54:42;58.05;;;52.55;;
22425;SDS011;11380;50.822;15.790;2022-08-27T20:59:48;56.30;;;51.13;;
22425;SDS011;11380;50.822;15.790;2022-08-27T21:05:12;56.67;;;51.47;;
22425;SDS011;11380;50.822;15.790;2022-08-27T21:10:19;57.67;;;52.17;;
22425;SDS011;11380;50.822;15.790;2022-08-27T21:15:24;58.13;;;52.77;;
22425;SDS011;11380;50.822;15.790;2022-08-27T21:20:31;59.33;;;53.60;;
22425;SDS011;11380;50.822;15.790;2022-08-27T21:25:37;58.80;;;52.98;;
22425;SDS011;11380;50.822;15.790;2022-08-27T21:30:43;58.27;;;52.90;;
22425;SDS011;11380;50.822;15.790;2022-08-27T21:35:50;57.93;;;52.53;;
22425;SDS011;11380;50.822;15.790;2022-08-27T21:40:57;59.77;;;54.00;;
22425;SDS011;11380;50.822;15.790;2022-08-27T21:46:03;58.00;;;52.67;;
22425;SDS011;11380;50.822;15.790;2022-08-27T21:51:10;57.80;;;52.47;;
22425;SDS011;11380;50.822;15.790;2022-08-27T21:56:19;57.67;;;52.20;;
22425;SDS011;11380;50.822;15.790;2022-08-27T22:01:24;59.50;;;53.83;;
22425;SDS011;11380;50.822;15.790;2022-08-27T22:06:30;58.83;;;52.35;;
22425;SDS011;11380;50.822;15.790;2022-08-27T22:11:36;57.83;;;52.33;;
22425;SDS011;11380;50.822;15.790;2022-08-27T22:16:42;58.13;;;52.70;;
22425;SDS011;11380;50.822;15.790;2022-08-27T22:26:52;59.13;;;53.52;;
22425;SDS011;11380;50.822;15.790;2022-08-27T22:31:58;59.95;;;54.25;;
22425;SDS011;11380;50.822;15.790;2022-08-27T22:37:03;60.17;;;54.37;;
22425;SDS011;11380;50.822;15.790;2022-08-27T22:42:10;60.57;;;54.70;;
22425;SDS011;11380;50.822;15.790;2022-08-27T22:47:16;61.00;;;55.23;;
22425;SDS011;11380;50.822;15.790;2022-08-27T22:52:22;62.23;;;55.97;;
22425;SDS011;11380;50.822;15.790;2022-08-27T22:57:30;61.87;;;55.97;;
22425;SDS011;11380;50.822;15.790;2022-08-27T23:02:37;61.37;;;55.30;;
22425;SDS011;11380;50.822;15.790;2022-08-27T23:07:42;61.83;;;55.63;;
22425;SDS011;11380;50.822;15.790;2022-08-27T23:12:47;62.43;;;56.13;;
22425;SDS011;11380;50.822;15.790;2022-08-27T23:17:54;61.90;;;56.00;;
22425;SDS011;11380;50.822;15.790;2022-08-27T23:23:00;61.80;;;55.70;;
22425;SDS011;11380;50.822;15.790;2022-08-27T23:28:06;61.85;;;55.88;;
22425;SDS011;11380;50.822;15.790;2022-08-27T23:33:13;61.78;;;55.86;;
22425;SDS011;11380;50.822;15.790;2022-08-27T23:38:19;61.55;;;55.65;;
22425;SDS011;11380;50.822;15.790;2022-08-27T23:43:25;60.95;;;55.05;;
22425;SDS011;11380;50.822;15.790;2022-08-27T23:48:32;61.33;;;55.23;;
22425;SDS011;11380;50.822;15.790;2022-08-27T23:58:42;60.30;;;54.40;;
